sensor_id;sensor_type;location;lat;lon;timestamp;pressure;altitude;pressure_sealevel;temperature;humidity
54556;BME280;57291;37.520;15.106;2023-11-18T00:00:03;100954.09;;;17.00;69.25
54556;BME280;57291;37.520;15.106;2023-11-18T00:02:38;100952.09;;;17.09;68.37
54556;BME280;57291;37.520;15.106;2023-11-18T00:05:06;100954.25;;;17.24;67.90
54556;BME280;57291;37.520;15.106;2023-11-18T00:07:34;100952.59;;;17.32;67.41
54556;BME280;57291;37.520;15.106;2023-11-18T00:10:03;100952.72;;;17.35;67.03
54556;BME280;57291;37.520;15.106;2023-11-18T00:12:31;100946.06;;;17.37;66.74
54556;BME280;57291;37.520;15.106;2023-11-18T00:15:03;100945.41;;;17.40;66.23
54556;BME280;57291;37.520;15.106;2023-11-18T00:17:31;100948.94;;;17.40;66.54
54556;BME280;57291;37.520;15.106;2023-11-18T00:19:59;100951.50;;;17.45;66.13
54556;BME280;57291;37.520;15.106;2023-11-18T00:22:26;100941.91;;;17.51;65.84
54556;BME280;57291;37.520;15.106;2023-11-18T00:24:55;100944.44;;;17.56;65.92
54556;BME280;57291;37.520;15.106;2023-11-18T00:27:22;100945.00;;;17.50;66.28
54556;BME280;57291;37.520;15.106;2023-11-18T00:29:49;100950.03;;;17.48;66.55
54556;BME280;57291;37.520;15.106;2023-11-18T00:32:16;100952.97;;;17.43;66.86
54556;BME280;57291;37.520;15.106;2023-11-18T00:34:44;100959.69;;;17.33;66.99
54556;BME280;57291;37.520;15.106;2023-11-18T00:37:11;100958.25;;;17.27;67.75
54556;BME280;57291;37.520;15.106;2023-11-18T00:39:39;100969.72;;;17.29;67.85
54556;BME280;57291;37.520;15.106;2023-11-18T00:42:06;100968.59;;;17.30;67.51
54556;BME280;57291;37.520;15.106;2023-11-18T00:44:33;100964.38;;;17.32;67.74
54556;BME280;57291;37.520;15.106;2023-11-18T00:47:01;100965.16;;;17.33;67.86
54556;BME280;57291;37.520;15.106;2023-11-18T00:49:29;100968.59;;;17.30;67.53
54556;BME280;57291;37.520;15.106;2023-11-18T00:51:57;100967.78;;;17.29;67.62
54556;BME280;57291;37.520;15.106;2023-11-18T00:54:25;100954.72;;;17.26;68.14
54556;BME280;57291;37.520;15.106;2023-11-18T00:56:53;100965.25;;;17.24;68.58
54556;BME280;57291;37.520;15.106;2023-11-18T00:59:21;100956.31;;;17.27;68.44
54556;BME280;57291;37.520;15.106;2023-11-18T01:01:48;100953.56;;;17.27;68.50
54556;BME280;57291;37.520;15.106;2023-11-18T01:04:16;100949.88;;;17.23;69.18
54556;BME280;57291;37.520;15.106;2023-11-18T01:06:43;100958.59;;;17.25;68.84
54556;BME280;57291;37.520;15.106;2023-11-18T01:09:11;100958.34;;;17.18;69.17
54556;BME280;57291;37.520;15.106;2023-11-18T01:11:39;100952.38;;;17.16;69.29
54556;BME280;57291;37.520;15.106;2023-11-18T01:14:26;100949.88;;;17.23;69.71
54556;BME280;57291;37.520;15.106;2023-11-18T01:16:53;100931.81;;;17.22;69.55
54556;BME280;57291;37.520;15.106;2023-11-18T01:19:20;100921.75;;;17.26;69.69
54556;BME280;57291;37.520;15.106;2023-11-18T01:21:49;100925.44;;;17.30;69.97
54556;BME280;57291;37.520;15.106;2023-11-18T01:24:16;100920.28;;;17.29;70.35
54556;BME280;57291;37.520;15.106;2023-11-18T01:26:44;100903.59;;;17.34;70.71
54556;BME280;57291;37.520;15.106;2023-11-18T01:29:12;100904.41;;;17.34;70.45
54556;BME280;57291;37.520;15.106;2023-11-18T01:31:40;100910.34;;;17.37;70.68
54556;BME280;57291;37.520;15.106;2023-11-18T01:34:19;100918.59;;;17.37;70.89
54556;BME280;57291;37.520;15.106;2023-11-18T01:36:49;100905.53;;;17.33;71.32
54556;BME280;57291;37.520;15.106;2023-11-18T01:39:17;100907.47;;;17.33;71.31
54556;BME280;57291;37.520;15.106;2023-11-18T01:41:45;100911.81;;;17.34;71.14
54556;BME280;57291;37.520;15.106;2023-11-18T01:44:13;100903.13;;;17.32;71.53
54556;BME280;57291;37.520;15.106;2023-11-18T01:46:43;100892.59;;;17.34;71.25
54556;BME280;57291;37.520;15.106;2023-11-18T01:49:14;100900.84;;;17.34;71.10
54556;BME280;57291;37.520;15.106;2023-11-18T01:51:44;100900.38;;;17.32;71.49
54556;BME280;57291;37.520;15.106;2023-11-18T01:54:13;100915.28;;;17.31;71.42
54556;BME280;57291;37.520;15.106;2023-11-18T01:56:48;100928.53;;;17.29;71.87
54556;BME280;57291;37.520;15.106;2023-11-18T01:59:16;100947.16;;;17.23;72.10
54556;BME280;57291;37.520;15.106;2023-11-18T02:01:49;100944.13;;;17.16;72.49
54556;BME280;57291;37.520;15.106;2023-11-18T02:04:19;100958.88;;;17.11;72.27
54556;BME280;57291;37.520;15.106;2023-11-18T02:06:48;100950.56;;;16.99;72.23
54556;BME280;57291;37.520;15.106;2023-11-18T02:09:18;100964.94;;;16.96;72.87
54556;BME280;57291;37.520;15.106;2023-11-18T02:11:53;100961.06;;;16.97;72.39
54556;BME280;57291;37.520;15.106;2023-11-18T02:14:26;100960.38;;;17.00;72.84
54556;BME280;57291;37.520;15.106;2023-11-18T02:16:56;100968.72;;;17.13;72.66
54556;BME280;57291;37.520;15.106;2023-11-18T02:19:26;100967.50;;;17.22;72.54
54556;BME280;57291;37.520;15.106;2023-11-18T02:21:54;100971.53;;;17.25;72.63
54556;BME280;57291;37.520;15.106;2023-11-18T02:24:27;100981.53;;;17.29;72.48
54556;BME280;57291;37.520;15.106;2023-11-18T02:26:58;100980.06;;;17.32;72.23
54556;BME280;57291;37.520;15.106;2023-11-18T02:29:29;100986.53;;;17.27;72.63
54556;BME280;57291;37.520;15.106;2023-11-18T02:35:20;100978.44;;;17.31;73.08
54556;BME280;57291;37.520;15.106;2023-11-18T02:37:53;100980.06;;;17.32;72.68
54556;BME280;57291;37.520;15.106;2023-11-18T02:40:34;100995.88;;;17.35;72.56
54556;BME280;57291;37.520;15.106;2023-11-18T02:43:04;100988.91;;;17.38;72.99
54556;BME280;57291;37.520;15.106;2023-11-18T02:45:34;101009.34;;;17.49;72.43
54556;BME280;57291;37.520;15.106;2023-11-18T02:48:07;101002.16;;;17.56;71.74
54556;BME280;57291;37.520;15.106;2023-11-18T02:50:34;101006.19;;;17.59;71.45
54556;BME280;57291;37.520;15.106;2023-11-18T02:53:05;100987.28;;;17.57;71.48
54556;BME280;57291;37.520;15.106;2023-11-18T02:55:32;100986.34;;;17.53;71.31
54556;BME280;57291;37.520;15.106;2023-11-18T02:58:01;101001.34;;;17.56;71.00
54556;BME280;57291;37.520;15.106;2023-11-18T03:00:33;101010.75;;;17.55;70.47
54556;BME280;57291;37.520;15.106;2023-11-18T03:03:01;101002.16;;;17.56;70.50
54556;BME280;57291;37.520;15.106;2023-11-18T03:05:31;100996.34;;;17.58;70.14
54556;BME280;57291;37.520;15.106;2023-11-18T03:07:59;100999.69;;;17.64;68.79
54556;BME280;57291;37.520;15.106;2023-11-18T03:10:27;100983.78;;;17.69;67.19
54556;BME280;57291;37.520;15.106;2023-11-18T03:12:57;100982.72;;;17.83;64.71
54556;BME280;57291;37.520;15.106;2023-11-18T03:15:24;100970.25;;;17.85;64.35
54556;BME280;57291;37.520;15.106;2023-11-18T03:17:53;100961.44;;;17.92;63.38
54556;BME280;57291;37.520;15.106;2023-11-18T03:20:22;100965.59;;;17.98;62.50
54556;BME280;57291;37.520;15.106;2023-11-18T03:22:50;100951.97;;;18.01;62.27
54556;BME280;57291;37.520;15.106;2023-11-18T03:25:20;100968.59;;;18.05;62.01
54556;BME280;57291;37.520;15.106;2023-11-18T03:27:49;100950.97;;;18.18;61.31
54556;BME280;57291;37.520;15.106;2023-11-18T03:30:16;100957.19;;;18.27;61.79
54556;BME280;57291;37.520;15.106;2023-11-18T03:32:46;100959.81;;;18.24;61.80
54556;BME280;57291;37.520;15.106;2023-11-18T03:35:14;100967.28;;;18.23;61.43
54556;BME280;57291;37.520;15.106;2023-11-18T03:37:41;100963.13;;;18.17;61.68
54556;BME280;57291;37.520;15.106;2023-11-18T03:40:12;100972.25;;;18.09;61.41
54556;BME280;57291;37.520;15.106;2023-11-18T03:42:45;100979.66;;;17.96;62.33
54556;BME280;57291;37.520;15.106;2023-11-18T03:45:13;100979.66;;;17.84;62.34
54556;BME280;57291;37.520;15.106;2023-11-18T03:47:45;100985.97;;;17.76;62.93
54556;BME280;57291;37.520;15.106;2023-11-18T03:50:14;100984.59;;;17.70;63.19
54556;BME280;57291;37.520;15.106;2023-11-18T03:52:42;100975.22;;;17.71;63.79
54556;BME280;57291;37.520;15.106;2023-11-18T03:55:09;100992.38;;;17.68;63.62
54556;BME280;57291;37.520;15.106;2023-11-18T03:57:36;100993.97;;;17.69;64.66
54556;BME280;57291;37.520;15.106;2023-11-18T04:00:05;100976.81;;;17.72;64.70
54556;BME280;57291;37.520;15.106;2023-11-18T04:02:39;100976.13;;;17.75;65.04
54556;BME280;57291;37.520;15.106;2023-11-18T04:05:08;100982.16;;;17.77;65.04
54556;BME280;57291;37.520;15.106;2023-11-18T04:07:36;100975.50;;;17.78;65.17
54556;BME280;57291;37.520;15.106;2023-11-18T04:10:03;100965.53;;;17.86;64.29
54556;BME280;57291;37.520;15.106;2023-11-18T04:12:33;100944.34;;;17.86;62.69
54556;BME280;57291;37.520;15.106;2023-11-18T04:15:01;100926.25;;;17.85;57.21
54556;BME280;57291;37.520;15.106;2023-11-18T04:17:28;100931.94;;;18.13;52.22
54556;BME280;57291;37.520;15.106;2023-11-18T04:19:55;100924.38;;;18.22;50.40
54556;BME280;57291;37.520;15.106;2023-11-18T04:22:23;100926.00;;;18.23;52.55
54556;BME280;57291;37.520;15.106;2023-11-18T04:24:50;100922.19;;;18.16;57.62
54556;BME280;57291;37.520;15.106;2023-11-18T04:27:18;100917.81;;;18.02;59.95
54556;BME280;57291;37.520;15.106;2023-11-18T04:29:45;100928.81;;;17.90;65.96
54556;BME280;57291;37.520;15.106;2023-11-18T04:32:12;100946.41;;;17.77;67.81
54556;BME280;57291;37.520;15.106;2023-11-18T04:34:41;100943.34;;;17.70;69.37
54556;BME280;57291;37.520;15.106;2023-11-18T04:37:09;100956.84;;;17.63;69.17
54556;BME280;57291;37.520;15.106;2023-11-18T04:39:37;100964.97;;;17.59;68.88
54556;BME280;57291;37.520;15.106;2023-11-18T04:42:04;100976.56;;;17.65;68.66
54556;BME280;57291;37.520;15.106;2023-11-18T04:44:31;100981.84;;;17.70;67.75
54556;BME280;57291;37.520;15.106;2023-11-18T04:46:59;101002.34;;;17.72;67.75
54556;BME280;57291;37.520;15.106;2023-11-18T04:49:26;101017.88;;;17.77;67.66
54556;BME280;57291;37.520;15.106;2023-11-18T04:51:54;101036.38;;;17.89;68.21
54556;BME280;57291;37.520;15.106;2023-11-18T04:54:21;101061.16;;;18.01;68.73
54556;BME280;57291;37.520;15.106;2023-11-18T04:56:48;101072.22;;;18.13;68.20
54556;BME280;57291;37.520;15.106;2023-11-18T04:59:16;101088.84;;;18.17;66.85
54556;BME280;57291;37.520;15.106;2023-11-18T05:01:44;101073.47;;;18.16;65.69
54556;BME280;57291;37.520;15.106;2023-11-18T05:04:12;101061.72;;;18.27;65.50
54556;BME280;57291;37.520;15.106;2023-11-18T05:06:39;101074.19;;;18.46;63.92
54556;BME280;57291;37.520;15.106;2023-11-18T05:09:06;101082.88;;;18.48;63.65
54556;BME280;57291;37.520;15.106;2023-11-18T05:11:34;101086.78;;;18.47;62.66
54556;BME280;57291;37.520;15.106;2023-11-18T05:14:02;101098.94;;;18.46;63.44
54556;BME280;57291;37.520;15.106;2023-11-18T05:16:31;101108.06;;;18.38;63.84
54556;BME280;57291;37.520;15.106;2023-11-18T05:18:58;101116.41;;;18.29;63.82
54556;BME280;57291;37.520;15.106;2023-11-18T05:21:25;101127.81;;;18.19;64.02
54556;BME280;57291;37.520;15.106;2023-11-18T05:23:53;101125.34;;;18.05;64.29
54556;BME280;57291;37.520;15.106;2023-11-18T05:26:20;101130.38;;;18.03;64.69
54556;BME280;57291;37.520;15.106;2023-11-18T05:28:47;101131.41;;;17.98;64.32
54556;BME280;57291;37.520;15.106;2023-11-18T05:31:16;101139.84;;;17.93;65.08
54556;BME280;57291;37.520;15.106;2023-11-18T05:33:44;101146.06;;;18.02;63.66
54556;BME280;57291;37.520;15.106;2023-11-18T05:36:16;101139.50;;;18.16;63.14
54556;BME280;57291;37.520;15.106;2023-11-18T05:38:43;101135.88;;;18.24;63.71
54556;BME280;57291;37.520;15.106;2023-11-18T05:41:11;101133.56;;;18.26;64.22
54556;BME280;57291;37.520;15.106;2023-11-18T05:43:43;101129.34;;;18.28;66.50
54556;BME280;57291;37.520;15.106;2023-11-18T05:46:18;101131.84;;;18.21;64.09
54556;BME280;57291;37.520;15.106;2023-11-18T05:48:50;101146.16;;;18.15;65.88
54556;BME280;57291;37.520;15.106;2023-11-18T05:51:25;101160.09;;;18.10;66.85
54556;BME280;57291;37.520;15.106;2023-11-18T05:53:53;101160.31;;;18.04;65.88
54556;BME280;57291;37.520;15.106;2023-11-18T05:56:22;101164.59;;;18.14;62.38
54556;BME280;57291;37.520;15.106;2023-11-18T05:58:51;101163.03;;;18.25;62.18
54556;BME280;57291;37.520;15.106;2023-11-18T06:01:21;101168.59;;;18.38;61.82
54556;BME280;57291;37.520;15.106;2023-11-18T06:03:49;101187.13;;;18.49;61.07
54556;BME280;57291;37.520;15.106;2023-11-18T06:06:17;101180.41;;;18.59;61.33
54556;BME280;57291;37.520;15.106;2023-11-18T06:08:50;101185.38;;;18.66;60.73
54556;BME280;57291;37.520;15.106;2023-11-18T06:11:19;101185.66;;;18.73;60.70
54556;BME280;57291;37.520;15.106;2023-11-18T06:13:49;101183.94;;;18.81;61.18
54556;BME280;57291;37.520;15.106;2023-11-18T06:16:19;101191.31;;;18.89;60.34
54556;BME280;57291;37.520;15.106;2023-11-18T06:18:55;101167.47;;;18.93;59.31
54556;BME280;57291;37.520;15.106;2023-11-18T06:21:24;101171.34;;;18.92;57.72
54556;BME280;57291;37.520;15.106;2023-11-18T06:23:55;101178.59;;;18.96;57.69
54556;BME280;57291;37.520;15.106;2023-11-18T06:26:23;101186.38;;;18.94;55.76
54556;BME280;57291;37.520;15.106;2023-11-18T06:28:54;101186.72;;;18.93;55.01
54556;BME280;57291;37.520;15.106;2023-11-18T06:31:24;101199.03;;;18.95;54.61
54556;BME280;57291;37.520;15.106;2023-11-18T06:33:51;101192.69;;;18.95;54.47
54556;BME280;57291;37.520;15.106;2023-11-18T06:36:20;101204.06;;;18.93;53.60
54556;BME280;57291;37.520;15.106;2023-11-18T06:38:53;101203.00;;;18.86;53.73
54556;BME280;57291;37.520;15.106;2023-11-18T06:41:23;101213.34;;;18.68;54.25
54556;BME280;57291;37.520;15.106;2023-11-18T06:43:51;101232.50;;;18.64;54.46
54556;BME280;57291;37.520;15.106;2023-11-18T06:46:23;101237.19;;;18.64;54.54
54556;BME280;57291;37.520;15.106;2023-11-18T06:48:52;101242.81;;;18.67;54.60
54556;BME280;57291;37.520;15.106;2023-11-18T06:51:21;101250.91;;;18.72;54.84
54556;BME280;57291;37.520;15.106;2023-11-18T06:53:52;101264.59;;;18.81;54.93
54556;BME280;57291;37.520;15.106;2023-11-18T06:56:26;101275.28;;;18.83;55.44
54556;BME280;57291;37.520;15.106;2023-11-18T06:58:54;101276.69;;;18.89;55.87
54556;BME280;57291;37.520;15.106;2023-11-18T07:01:21;101296.78;;;19.02;55.49
54556;BME280;57291;37.520;15.106;2023-11-18T07:03:49;101293.84;;;19.07;55.14
54556;BME280;57291;37.520;15.106;2023-11-18T07:06:20;101310.50;;;19.10;54.69
54556;BME280;57291;37.520;15.106;2023-11-18T07:08:50;101303.69;;;18.95;55.01
54556;BME280;57291;37.520;15.106;2023-11-18T07:11:18;101301.50;;;19.01;54.90
54556;BME280;57291;37.520;15.106;2023-11-18T07:13:47;101303.25;;;19.06;54.88
54556;BME280;57291;37.520;15.106;2023-11-18T07:16:15;101299.31;;;18.94;55.29
54556;BME280;57291;37.520;15.106;2023-11-18T07:18:42;101312.34;;;19.06;55.87
54556;BME280;57291;37.520;15.106;2023-11-18T07:21:10;101310.44;;;19.19;55.64
54556;BME280;57291;37.520;15.106;2023-11-18T07:23:37;101323.28;;;19.27;54.56
54556;BME280;57291;37.520;15.106;2023-11-18T07:26:05;101321.94;;;19.33;54.55
54556;BME280;57291;37.520;15.106;2023-11-18T07:28:32;101325.84;;;19.32;54.60
54556;BME280;57291;37.520;15.106;2023-11-18T07:30:59;101334.25;;;19.36;54.23
54556;BME280;57291;37.520;15.106;2023-11-18T07:33:26;101340.13;;;19.47;54.11
54556;BME280;57291;37.520;15.106;2023-11-18T07:35:54;101340.38;;;19.54;53.39
54556;BME280;57291;37.520;15.106;2023-11-18T07:38:22;101346.00;;;19.57;53.17
54556;BME280;57291;37.520;15.106;2023-11-18T07:40:50;101351.31;;;19.62;53.40
54556;BME280;57291;37.520;15.106;2023-11-18T07:43:19;101358.31;;;19.60;53.06
54556;BME280;57291;37.520;15.106;2023-11-18T07:45:48;101364.19;;;19.58;53.37
54556;BME280;57291;37.520;15.106;2023-11-18T07:48:23;101381.31;;;19.64;53.24
54556;BME280;57291;37.520;15.106;2023-11-18T07:50:50;101386.84;;;19.64;53.19
54556;BME280;57291;37.520;15.106;2023-11-18T07:53:18;101382.78;;;19.61;53.15
54556;BME280;57291;37.520;15.106;2023-11-18T07:55:45;101399.94;;;19.67;53.54
54556;BME280;57291;37.520;15.106;2023-11-18T07:58:14;101406.22;;;19.88;53.10
54556;BME280;57291;37.520;15.106;2023-11-18T08:00:43;101411.63;;;20.09;52.43
54556;BME280;57291;37.520;15.106;2023-11-18T08:03:12;101411.97;;;19.96;52.36
54556;BME280;57291;37.520;15.106;2023-11-18T08:05:42;101414.94;;;19.90;53.02
54556;BME280;57291;37.520;15.106;2023-11-18T08:08:15;101418.63;;;19.95;53.04
54556;BME280;57291;37.520;15.106;2023-11-18T08:10:45;101423.66;;;19.80;55.39
54556;BME280;57291;37.520;15.106;2023-11-18T08:13:15;101428.84;;;19.61;54.27
54556;BME280;57291;37.520;15.106;2023-11-18T08:15:43;101429.25;;;19.51;54.03
54556;BME280;57291;37.520;15.106;2023-11-18T08:18:14;101429.28;;;19.30;54.98
54556;BME280;57291;37.520;15.106;2023-11-18T08:20:42;101435.41;;;19.14;59.27
54556;BME280;57291;37.520;15.106;2023-11-18T08:23:10;101432.13;;;19.21;61.90
54556;BME280;57291;37.520;15.106;2023-11-18T08:25:37;101433.94;;;19.17;60.80
54556;BME280;57291;37.520;15.106;2023-11-18T08:28:07;101439.72;;;19.24;64.00
54556;BME280;57291;37.520;15.106;2023-11-18T08:30:37;101447.03;;;19.20;63.35
54556;BME280;57291;37.520;15.106;2023-11-18T08:33:05;101450.38;;;19.05;65.00
54556;BME280;57291;37.520;15.106;2023-11-18T08:35:36;101460.38;;;18.88;65.25
54556;BME280;57291;37.520;15.106;2023-11-18T08:38:04;101459.66;;;18.79;64.49
54556;BME280;57291;37.520;15.106;2023-11-18T08:40:34;101456.78;;;18.96;65.91
54556;BME280;57291;37.520;15.106;2023-11-18T08:43:03;101449.25;;;19.27;64.27
54556;BME280;57291;37.520;15.106;2023-11-18T08:45:32;101458.47;;;19.52;60.96
54556;BME280;57291;37.520;15.106;2023-11-18T08:48:01;101450.50;;;19.50;62.04
54556;BME280;57291;37.520;15.106;2023-11-18T08:50:31;101452.13;;;19.51;62.91
54556;BME280;57291;37.520;15.106;2023-11-18T08:52:58;101445.97;;;19.33;64.17
54556;BME280;57291;37.520;15.106;2023-11-18T08:55:27;101461.41;;;19.47;59.54
54556;BME280;57291;37.520;15.106;2023-11-18T08:58:15;101467.19;;;19.75;56.84
54556;BME280;57291;37.520;15.106;2023-11-18T09:03:17;101473.66;;;20.24;54.67
54556;BME280;57291;37.520;15.106;2023-11-18T09:05:46;101476.41;;;20.36;52.63
54556;BME280;57291;37.520;15.106;2023-11-18T09:08:46;101473.53;;;20.45;52.54
54556;BME280;57291;37.520;15.106;2023-11-18T09:11:23;101474.78;;;20.35;52.06
54556;BME280;57291;37.520;15.106;2023-11-18T09:13:54;101483.00;;;20.69;50.33
54556;BME280;57291;37.520;15.106;2023-11-18T09:16:26;101477.81;;;20.79;49.26
54556;BME280;57291;37.520;15.106;2023-11-18T09:18:58;101476.44;;;20.85;49.70
54556;BME280;57291;37.520;15.106;2023-11-18T09:21:26;101470.31;;;21.04;49.37
54556;BME280;57291;37.520;15.106;2023-11-18T09:23:57;101464.88;;;21.20;48.85
54556;BME280;57291;37.520;15.106;2023-11-18T09:26:24;101475.34;;;21.15;49.28
54556;BME280;57291;37.520;15.106;2023-11-18T09:28:53;101480.56;;;21.04;49.38
54556;BME280;57291;37.520;15.106;2023-11-18T09:31:21;101478.53;;;20.64;51.17
54556;BME280;57291;37.520;15.106;2023-11-18T09:33:49;101467.22;;;20.45;50.55
54556;BME280;57291;37.520;15.106;2023-11-18T09:36:21;101460.09;;;20.56;48.01
54556;BME280;57291;37.520;15.106;2023-11-18T09:38:50;101467.94;;;20.66;46.25
54556;BME280;57291;37.520;15.106;2023-11-18T09:41:17;101463.72;;;21.09;46.38
54556;BME280;57291;37.520;15.106;2023-11-18T09:43:46;101464.69;;;21.53;44.28
54556;BME280;57291;37.520;15.106;2023-11-18T09:46:16;101466.41;;;21.74;43.04
54556;BME280;57291;37.520;15.106;2023-11-18T09:48:48;101454.22;;;21.91;41.85
54556;BME280;57291;37.520;15.106;2023-11-18T09:51:28;101447.09;;;21.62;44.27
54556;BME280;57291;37.520;15.106;2023-11-18T09:54:00;101448.44;;;21.52;43.33
54556;BME280;57291;37.520;15.106;2023-11-18T09:59:31;101457.97;;;21.54;42.59
54556;BME280;57291;37.520;15.106;2023-11-18T10:02:03;101450.03;;;21.53;42.74
54556;BME280;57291;37.520;15.106;2023-11-18T10:04:38;101456.75;;;21.68;43.05
54556;BME280;57291;37.520;15.106;2023-11-18T10:07:06;101452.72;;;21.93;42.40
54556;BME280;57291;37.520;15.106;2023-11-18T10:09:38;101459.66;;;22.15;42.92
54556;BME280;57291;37.520;15.106;2023-11-18T10:12:09;101457.28;;;22.01;40.50
54556;BME280;57291;37.520;15.106;2023-11-18T10:14:41;101462.81;;;21.58;40.72
54556;BME280;57291;37.520;15.106;2023-11-18T10:17:11;101458.44;;;21.16;39.68
54556;BME280;57291;37.520;15.106;2023-11-18T10:19:57;101452.22;;;21.19;38.64
54556;BME280;57291;37.520;15.106;2023-11-18T10:22:40;101460.31;;;21.52;39.61
54556;BME280;57291;37.520;15.106;2023-11-18T10:25:08;101461.38;;;21.92;38.49
54556;BME280;57291;37.520;15.106;2023-11-18T10:27:35;101450.53;;;22.31;38.68
54556;BME280;57291;37.520;15.106;2023-11-18T10:30:05;101460.47;;;22.47;37.09
54556;BME280;57291;37.520;15.106;2023-11-18T10:32:59;101459.81;;;22.54;36.73
54556;BME280;57291;37.520;15.106;2023-11-18T10:35:34;101469.41;;;22.92;37.03
54556;BME280;57291;37.520;15.106;2023-11-18T10:38:02;101474.72;;;23.36;36.34
54556;BME280;57291;37.520;15.106;2023-11-18T10:40:32;101467.25;;;23.01;35.18
54556;BME280;57291;37.520;15.106;2023-11-18T10:43:03;101461.81;;;22.38;34.78
54556;BME280;57291;37.520;15.106;2023-11-18T10:45:37;101458.91;;;22.50;34.02
54556;BME280;57291;37.520;15.106;2023-11-18T10:48:12;101450.09;;;22.44;35.12
54556;BME280;57291;37.520;15.106;2023-11-18T10:50:47;101447.84;;;22.50;35.58
54556;BME280;57291;37.520;15.106;2023-11-18T10:53:14;101460.09;;;22.17;36.44
54556;BME280;57291;37.520;15.106;2023-11-18T10:55:43;101466.53;;;22.21;36.73
54556;BME280;57291;37.520;15.106;2023-11-18T10:58:13;101456.97;;;22.35;33.99
54556;BME280;57291;37.520;15.106;2023-11-18T11:03:15;101452.53;;;21.30;37.89
54556;BME280;57291;37.520;15.106;2023-11-18T11:05:43;101443.53;;;20.80;37.62
54556;BME280;57291;37.520;15.106;2023-11-18T11:08:14;101445.94;;;20.94;36.41
54556;BME280;57291;37.520;15.106;2023-11-18T11:11:01;101449.06;;;20.93;36.25
54556;BME280;57291;37.520;15.106;2023-11-18T11:13:31;101443.69;;;21.12;36.33
54556;BME280;57291;37.520;15.106;2023-11-18T11:16:01;101446.75;;;20.82;38.10
54556;BME280;57291;37.520;15.106;2023-11-18T11:18:34;101447.22;;;20.72;39.79
54556;BME280;57291;37.520;15.106;2023-11-18T11:21:11;101440.44;;;20.70;42.44
54556;BME280;57291;37.520;15.106;2023-11-18T11:23:55;101434.16;;;21.10;37.77
54556;BME280;57291;37.520;15.106;2023-11-18T11:26:41;101432.31;;;21.42;36.64
54556;BME280;57291;37.520;15.106;2023-11-18T11:32:13;101453.50;;;21.50;35.24
54556;BME280;57291;37.520;15.106;2023-11-18T11:34:53;101424.97;;;21.46;36.16
54556;BME280;57291;37.520;15.106;2023-11-18T11:37:25;101439.13;;;21.32;37.84
54556;BME280;57291;37.520;15.106;2023-11-18T11:39:53;101438.03;;;21.21;37.10
54556;BME280;57291;37.520;15.106;2023-11-18T11:42:26;101453.72;;;21.57;35.59
54556;BME280;57291;37.520;15.106;2023-11-18T11:44:54;101444.72;;;21.60;35.42
54556;BME280;57291;37.520;15.106;2023-11-18T11:47:23;101454.91;;;21.44;35.71
54556;BME280;57291;37.520;15.106;2023-11-18T11:50:15;101438.13;;;21.24;36.63
54556;BME280;57291;37.520;15.106;2023-11-18T11:52:56;101447.50;;;21.48;35.91
54556;BME280;57291;37.520;15.106;2023-11-18T11:55:38;101437.53;;;21.87;34.84
54556;BME280;57291;37.520;15.106;2023-11-18T11:58:29;101436.03;;;22.06;34.31
54556;BME280;57291;37.520;15.106;2023-11-18T12:01:01;101434.78;;;22.03;34.70
54556;BME280;57291;37.520;15.106;2023-11-18T12:03:41;101415.75;;;21.86;33.43
54556;BME280;57291;37.520;15.106;2023-11-18T12:06:12;101433.31;;;21.77;33.34
54556;BME280;57291;37.520;15.106;2023-11-18T12:08:43;101432.09;;;21.47;32.67
54556;BME280;57291;37.520;15.106;2023-11-18T12:11:12;101440.69;;;21.58;33.66
54556;BME280;57291;37.520;15.106;2023-11-18T12:13:39;101433.75;;;21.64;33.58
54556;BME280;57291;37.520;15.106;2023-11-18T12:16:07;101431.13;;;21.55;32.61
54556;BME280;57291;37.520;15.106;2023-11-18T12:18:37;101426.84;;;21.29;34.90
54556;BME280;57291;37.520;15.106;2023-11-18T12:21:04;101430.75;;;21.28;35.19
54556;BME280;57291;37.520;15.106;2023-11-18T12:23:32;101440.19;;;21.27;35.36
54556;BME280;57291;37.520;15.106;2023-11-18T12:26:02;101456.97;;;20.94;38.07
54556;BME280;57291;37.520;15.106;2023-11-18T12:28:32;101449.06;;;20.56;37.31
54556;BME280;57291;37.520;15.106;2023-11-18T12:31:04;101456.78;;;20.63;38.98
54556;BME280;57291;37.520;15.106;2023-11-18T12:41:40;101439.38;;;20.87;33.21
54556;BME280;57291;37.520;15.106;2023-11-18T12:47:02;101439.59;;;20.94;34.89
54556;BME280;57291;37.520;15.106;2023-11-18T12:49:42;101450.97;;;20.92;33.96
54556;BME280;57291;37.520;15.106;2023-11-18T12:52:11;101459.06;;;20.48;36.43
54556;BME280;57291;37.520;15.106;2023-11-18T12:54:42;101464.91;;;20.34;38.35
54556;BME280;57291;37.520;15.106;2023-11-18T12:57:10;101461.91;;;20.27;38.57
54556;BME280;57291;37.520;15.106;2023-11-18T12:59:42;101464.56;;;20.36;40.16
54556;BME280;57291;37.520;15.106;2023-11-18T13:02:10;101467.59;;;20.55;37.01
54556;BME280;57291;37.520;15.106;2023-11-18T13:04:47;101463.78;;;20.72;35.88
54556;BME280;57291;37.520;15.106;2023-11-18T13:07:17;101473.13;;;20.80;30.86
54556;BME280;57291;37.520;15.106;2023-11-18T13:09:46;101474.25;;;20.91;31.27
54556;BME280;57291;37.520;15.106;2023-11-18T13:12:14;101479.41;;;21.05;29.19
54556;BME280;57291;37.520;15.106;2023-11-18T13:14:42;101487.69;;;21.17;28.42
54556;BME280;57291;37.520;15.106;2023-11-18T13:17:13;101480.06;;;21.26;28.57
54556;BME280;57291;37.520;15.106;2023-11-18T13:19:43;101490.03;;;21.03;29.73